Time;durP1;ratioP1;P1;durP2;ratioP2;P2;SDS_P1;SDS_P2;PMS_P1;PMS_P2;Temp;Humidity;BMP_temperature;BMP_pressure;BME280_temperature;BME280_humidity;BME280_pressure;Samples;Min_cycle;Max_cycle;Signal;HPM_P1;HPM_P2
2023/06/04 00:00:31;;;;;;;6.03;3.22;;;;;;;22.65;49.25;98907.22;5050799;28;20481;-83
2023/06/04 00:02:56;;;;;;;4.65;2.88;;;;;;;22.63;49.09;98904.75;5018175;28;20036;-83
2023/06/04 00:05:25;;;;;;;5.10;3.38;;;;;;;22.59;49.33;98906.94;5050721;28;20476;-83
2023/06/04 00:07:53;;;;;;;6.15;2.75;;;;;;;22.61;49.24;98905.94;5050867;28;20032;-84
2023/06/04 00:10:19;;;;;;;4.88;2.88;;;;;;;22.62;49.75;98912.91;5034568;28;20148;-84
2023/06/04 00:12:44;;;;;;;4.50;3.08;;;;;;;22.58;49.29;98907.97;5034258;28;20033;-83
2023/06/04 00:15:10;;;;;;;5.40;3.20;;;;;;;22.54;49.71;98905.88;5018339;28;20037;-83
2023/06/04 00:17:35;;;;;;;5.32;2.70;;;;;;;22.50;49.72;98910.75;5017638;28;20508;-83
2023/06/04 00:20:01;;;;;;;3.83;2.90;;;;;;;22.54;49.77;98916.53;5034323;28;20522;-83
2023/06/04 00:22:27;;;;;;;6.55;2.92;;;;;;;22.47;49.97;98910.28;5050928;28;20032;-83
2023/06/04 00:24:52;;;;;;;5.95;2.78;;;;;;;22.48;50.04;98917.28;5050654;28;20028;-83
2023/06/04 00:27:18;;;;;;;6.03;2.70;;;;;;;22.51;50.00;98924.88;5033757;28;20449;-83
2023/06/04 00:29:43;;;;;;;7.20;2.88;;;;;;;22.52;50.41;98926.53;5033880;28;20106;-83
2023/06/04 00:32:09;;;;;;;4.30;2.78;;;;;;;22.53;50.08;98922.84;5050858;28;20037;-83
2023/06/04 00:34:34;;;;;;;3.53;2.60;;;;;;;22.51;50.29;98922.22;5031544;28;20030;-83
2023/06/04 00:37:01;;;;;;;4.55;2.53;;;;;;;22.53;50.41;98925.50;5014275;28;20494;-82
2023/06/04 00:39:27;;;;;;;3.83;2.40;;;;;;;22.54;50.71;98914.66;5031811;28;20025;-82
2023/06/04 00:41:52;;;;;;;4.57;2.60;;;;;;;22.50;50.72;98905.44;5013905;28;20124;-83
2023/06/04 00:44:18;;;;;;;4.53;2.80;;;;;;;22.57;50.68;98916.13;4997936;28;20034;-83
2023/06/04 00:46:45;;;;;;;4.53;2.63;;;;;;;22.54;50.72;98912.00;4997542;28;20519;-83
2023/06/04 00:49:12;;;;;;;6.35;2.90;;;;;;;22.52;50.74;98903.41;5014663;28;20116;-83
2023/06/04 00:51:37;;;;;;;3.50;2.85;;;;;;;22.53;50.92;98902.41;5018087;28;20045;-83
2023/06/04 00:54:08;;;;;;;4.00;2.90;;;;;;;22.55;50.70;98902.19;5034049;28;20022;-82
2023/06/04 00:56:34;;;;;;;5.25;3.00;;;;;;;22.52;51.02;98898.09;5052694;28;20058;-83
2023/06/04 00:59:00;;;;;;;10.55;5.28;;;;;;;22.49;50.83;98893.16;5037342;28;20060;-83
2023/06/04 01:01:40;;;;;;;12.23;9.07;;;;;;;22.48;50.87;98893.34;5053627;28;20468;-82
2023/06/04 01:04:09;;;;;;;15.52;9.75;;;;;;;22.49;50.84;98895.81;5038325;28;20388;-83
2023/06/04 01:06:43;;;;;;;13.13;8.27;;;;;;;22.45;51.07;98891.88;5036850;28;20037;-83
2023/06/04 01:09:09;;;;;;;11.60;8.48;;;;;;;22.46;51.14;98890.88;5053795;28;20025;-83
2023/06/04 01:11:36;;;;;;;12.32;9.82;;;;;;;22.45;51.34;98901.69;5036946;28;20025;-83
2023/06/04 01:14:02;;;;;;;12.25;8.43;;;;;;;22.43;51.22;98901.88;5020568;28;20021;-84
2023/06/04 01:16:30;;;;;;;14.82;8.65;;;;;;;22.37;51.24;98895.47;5053207;28;20033;-83
2023/06/04 01:18:59;;;;;;;12.55;8.95;;;;;;;22.40;51.33;98896.94;5053896;28;20083;-83
2023/06/04 01:21:27;;;;;;;11.35;8.18;;;;;;;22.39;51.63;98900.59;5036850;28;20483;-82
2023/06/04 01:23:58;;;;;;;12.32;8.50;;;;;;;22.39;51.25;98901.44;5037184;28;20040;-83
2023/06/04 01:26:25;;;;;;;16.23;11.05;;;;;;;22.35;51.53;98902.81;5037900;28;20431;-83
2023/06/04 01:28:50;;;;;;;15.93;11.57;;;;;;;22.36;51.33;98904.47;5020692;28;20121;-83
2023/06/04 01:31:16;;;;;;;21.63;14.45;;;;;;;22.39;51.74;98912.09;5036922;28;20148;-83
2023/06/04 01:33:41;;;;;;;18.35;12.98;;;;;;;22.37;51.69;98910.63;5036715;28;20029;-83
2023/06/04 01:36:10;;;;;;;15.60;11.07;;;;;;;22.38;51.31;98909.63;5019723;28;20051;-83
2023/06/04 01:38:35;;;;;;;;;;;;;;;22.39;51.35;98916.56;5021071;28;20130;-84
2023/06/04 01:41:01;;;;;;;15.80;11.02;;;;;;;22.35;51.55;98916.13;5036485;28;20367;-84
2023/06/04 01:43:28;;;;;;;18.50;13.63;;;;;;;22.32;51.79;98905.03;5052746;28;20040;-83
2023/06/04 01:45:54;;;;;;;20.15;14.45;;;;;;;22.35;51.38;98915.31;5036619;28;20393;-83
2023/06/04 01:48:20;;;;;;;26.75;19.45;;;;;;;22.34;51.43;98921.63;5036337;28;20048;-83
2023/06/04 01:50:45;;;;;;;26.17;17.60;;;;;;;22.34;51.26;98926.94;5019833;28;20025;-83
2023/06/04 01:53:11;;;;;;;25.05;18.98;;;;;;;22.35;51.45;98923.28;5052986;28;20115;-83
2023/06/04 01:55:37;;;;;;;21.75;17.00;;;;;;;22.33;51.64;98922.63;5036165;28;20150;-84
2023/06/04 01:58:03;;;;;;;20.83;16.45;;;;;;;22.30;51.44;98929.16;5036303;28;20048;-84
2023/06/04 02:00:28;;;;;;;21.65;16.48;;;;;;;22.28;50.94;98928.50;5019646;28;20025;-83
2023/06/04 02:02:55;;;;;;;19.80;15.38;;;;;;;22.30;51.25;98931.81;5019538;28;20037;-83
2023/06/04 02:05:21;;;;;;;27.58;18.00;;;;;;;22.31;51.14;98944.13;5020648;28;20423;-84
2023/06/04 02:07:47;;;;;;;22.67;16.75;;;;;;;22.29;51.23;98942.63;5036467;28;20037;-83
2023/06/04 02:10:14;;;;;;;21.00;14.90;;;;;;;22.28;51.23;98952.44;5053413;28;20056;-83
2023/06/04 02:12:51;;;;;;;18.13;12.87;;;;;;;22.27;50.96;98950.78;5019803;28;20037;-83
2023/06/04 02:15:17;;;;;;;19.50;13.98;;;;;;;22.27;50.96;98949.97;5037330;28;20040;-82
2023/06/04 02:17:45;;;;;;;22.70;15.93;;;;;;;22.25;50.78;98951.97;5054399;28;20029;-84
2023/06/04 02:20:11;;;;;;;19.35;14.95;;;;;;;22.25;50.95;98955.47;5036490;28;20025;-84
2023/06/04 02:22:36;;;;;;;18.33;14.35;;;;;;;22.27;51.04;98955.28;5052526;28;20381;-82
2023/06/04 02:25:02;;;;;;;17.80;13.45;;;;;;;22.26;50.99;98957.09;5019390;28;20068;-86
2023/06/04 02:27:28;;;;;;;18.88;13.45;;;;;;;22.24;51.07;98959.13;5035613;28;20553;-85
2023/06/04 02:29:53;;;;;;;16.80;13.20;;;;;;;22.25;51.03;98952.81;5019381;28;20037;-85
2023/06/04 02:32:19;;;;;;;18.02;13.07;;;;;;;22.26;50.82;98954.44;5035897;28;20047;-84
2023/06/04 02:34:45;;;;;;;16.60;12.38;;;;;;;22.23;51.18;98953.00;5051654;28;20500;-84
2023/06/04 02:37:10;;;;;;;18.52;13.23;;;;;;;22.24;50.92;98959.13;5035589;28;20033;-84
2023/06/04 02:39:36;;;;;;;20.45;15.15;;;;;;;22.27;51.21;98963.25;5035670;28;20419;-84
2023/06/04 02:42:01;;;;;;;20.67;15.63;;;;;;;22.26;51.45;98966.91;5051961;28;20478;-85
2023/06/04 02:44:29;;;;;;;19.05;14.00;;;;;;;22.25;51.05;98968.78;5052039;28;20064;-85
2023/06/04 02:46:54;;;;;;;15.75;13.02;;;;;;;22.17;51.22;98958.22;5053490;28;20025;-84
2023/06/04 02:49:20;;;;;;;16.77;11.90;;;;;;;22.26;51.19;98965.06;5053169;28;20106;-84
2023/06/04 02:51:45;;;;;;;19.65;12.10;;;;;;;22.23;51.22;98968.09;5018859;28;20029;-84
2023/06/04 02:54:11;;;;;;;18.23;11.70;;;;;;;22.26;51.19;98974.91;5051790;28;20373;-84
2023/06/04 02:56:37;;;;;;;14.75;11.63;;;;;;;22.27;51.21;98987.19;5051504;28;20117;-84
2023/06/04 02:59:02;;;;;;;15.70;11.30;;;;;;;22.25;51.29;98976.75;5051898;28;20094;-84
2023/06/04 03:01:28;;;;;;;17.13;11.38;;;;;;;22.23;51.12;98978.75;5051691;28;20112;-85
2023/06/04 03:03:54;;;;;;;13.75;9.75;;;;;;;22.22;51.05;98980.59;5035271;28;20106;-84
2023/06/04 03:06:21;;;;;;;14.23;10.60;;;;;;;22.22;51.15;98985.09;5018641;28;20032;-84
2023/06/04 03:08:47;;;;;;;13.00;9.60;;;;;;;22.19;51.52;98986.28;5051539;28;20036;-84
2023/06/04 03:11:13;;;;;;;12.88;9.63;;;;;;;22.16;51.12;98989.31;5051740;28;20040;-84
2023/06/04 03:13:38;;;;;;;15.65;10.05;;;;;;;22.20;51.30;98992.41;5035171;28;20034;-85
2023/06/04 03:16:09;;;;;;;12.02;9.00;;;;;;;22.16;50.98;98991.97;5035496;28;20041;-85
2023/06/04 03:18:38;;;;;;;15.13;9.27;;;;;;;22.16;51.07;98993.81;5035663;28;20025;-85
2023/06/04 03:21:06;;;;;;;12.30;8.70;;;;;;;22.19;51.23;98990.78;5018619;28;20036;-85
2023/06/04 03:23:32;;;;;;;10.25;8.05;;;;;;;22.17;51.32;98990.97;5034775;28;20821;-84
2023/06/04 03:25:57;;;;;;;11.60;8.60;;;;;;;22.20;51.22;99001.22;5035344;28;20419;-87
2023/06/04 03:28:23;;;;;;;10.48;7.55;;;;;;;22.22;50.88;98995.72;5018886;28;20048;-87
2023/06/04 03:30:48;;;;;;;11.70;8.07;;;;;;;22.26;51.07;99006.81;5034739;28;20033;-88
2023/06/04 03:33:14;;;;;;;12.40;6.82;;;;;;;22.30;50.86;99008.13;5052566;28;20033;-86
2023/06/04 03:35:42;;;;;;;11.43;6.43;;;;;;;22.30;50.65;99006.28;5050867;28;20037;-86
2023/06/04 03:38:08;;;;;;;9.60;6.45;;;;;;;22.29;50.77;99006.44;5051292;28;20054;-86
2023/06/04 03:40:33;;;;;;;8.73;5.90;;;;;;;22.29;50.44;99011.75;5018159;28;20478;-86
2023/06/04 03:43:00;;;;;;;8.77;6.10;;;;;;;22.31;50.47;99018.56;5034317;28;20120;-86
2023/06/04 03:45:26;;;;;;;10.32;6.30;;;;;;;22.30;50.36;99013.44;5034617;28;20032;-85
2023/06/04 03:47:51;;;;;;;7.65;5.40;;;;;;;22.28;50.86;99008.28;5034610;28;20033;-86
2023/06/04 03:50:18;;;;;;;8.15;5.70;;;;;;;22.29;50.53;99004.59;5034845;28;20045;-87
2023/06/04 03:52:43;;;;;;;7.80;5.43;;;;;;;22.30;50.86;99013.44;5034552;28;20476;-86
2023/06/04 03:55:10;;;;;;;16.20;6.40;;;;;;;22.32;50.74;99019.41;5052329;28;20067;-86
2023/06/04 03:57:38;;;;;;;14.00;6.03;;;;;;;22.31;50.72;99017.72;5034837;28;20032;-86
2023/06/04 04:00:08;;;;;;;10.63;7.50;;;;;;;22.32;50.62;99022.06;5018094;28;20455;-86
2023/06/04 04:02:33;;;;;;;11.75;8.23;;;;;;;22.31;50.86;99017.72;5051447;28;20021;-86
2023/06/04 04:04:59;;;;;;;14.02;9.02;;;;;;;22.31;50.80;99020.41;5050868;28;20511;-86
2023/06/04 04:07:25;;;;;;;12.63;8.85;;;;;;;22.35;50.76;99029.66;5034700;28;20118;-86
2023/06/04 04:09:51;;;;;;;10.07;7.82;;;;;;;22.37;50.99;99024.97;5034765;28;20076;-85
2023/06/04 04:12:17;;;;;;;11.88;8.38;;;;;;;22.37;50.59;99025.78;5034411;28;20039;-86
2023/06/04 04:14:42;;;;;;;10.73;8.40;;;;;;;22.39;50.86;99028.25;5034740;28;20435;-87
2023/06/04 04:17:08;;;;;;;13.50;8.10;;;;;;;22.42;50.87;99027.06;5050507;28;20025;-86
2023/06/04 04:19:33;;;;;;;14.48;8.82;;;;;;;22.43;50.58;99021.56;5018551;28;20114;-87
2023/06/04 04:21:59;;;;;;;11.50;8.48;;;;;;;22.44;50.97;99028.53;5034431;28;20041;-86
2023/06/04 04:24:26;;;;;;;13.27;8.20;;;;;;;22.48;50.77;99032.47;5034625;28;20412;-86
2023/06/04 04:26:54;;;;;;;11.52;7.75;;;;;;;22.56;50.91;99031.53;5021484;28;20115;-86
2023/06/04 04:29:27;;;;;;;10.38;7.65;;;;;;;22.58;50.90;99018.84;5022261;28;20056;-86
2023/06/04 04:31:53;;;;;;;9.82;6.88;;;;;;;22.68;50.92;99023.91;5023359;28;20026;-86
2023/06/04 04:34:21;;;;;;;10.57;7.45;;;;;;;22.73;50.56;99026.81;5021044;28;20523;-85
2023/06/04 04:36:51;;;;;;;;;;;;;;;22.79;50.49;99028.72;5054587;28;20491;-85
2023/06/04 04:39:22;;;;;;;8.98;6.45;;;;;;;22.81;50.48;99026.69;5054245;28;19999;-85
2023/06/04 04:41:47;;;;;;;8.45;6.68;;;;;;;22.89;50.45;99036.38;5020910;28;20095;-85
2023/06/04 04:44:13;;;;;;;9.35;6.60;;;;;;;22.94;50.31;99026.84;5033940;28;20558;-86
2023/06/04 04:46:38;;;;;;;8.15;5.78;;;;;;;23.04;49.99;99037.16;5017831;28;20040;-86
2023/06/04 04:49:04;;;;;;;9.90;5.63;;;;;;;23.10;49.66;99040.91;5035399;28;20046;-86
2023/06/04 04:51:29;;;;;;;9.57;6.35;;;;;;;23.20;49.48;99052.09;5034014;28;20052;-86
2023/06/04 04:53:55;;;;;;;10.68;6.03;;;;;;;23.24;49.31;99048.00;5037300;28;20045;-85
2023/06/04 04:56:22;;;;;;;7.72;5.90;;;;;;;23.26;49.33;99045.16;5054662;28;20025;-85
2023/06/04 04:58:48;;;;;;;11.85;5.70;;;;;;;23.34;49.12;99046.84;5020882;28;20094;-85
2023/06/04 05:01:13;;;;;;;8.10;5.53;;;;;;;23.35;48.80;99051.19;5020498;28;20040;-85
2023/06/04 05:03:39;;;;;;;19.48;5.28;;;;;;;23.43;48.80;99056.38;5037527;28;20032;-86
2023/06/04 05:06:05;;;;;;;7.30;5.18;;;;;;;23.45;48.16;99056.97;5017395;28;20026;-85
2023/06/04 05:08:30;;;;;;;8.65;4.68;;;;;;;23.49;48.40;99058.25;5001322;28;20037;-86
2023/06/04 05:10:56;;;;;;;10.00;5.20;;;;;;;23.51;48.35;99060.72;5017576;28;20065;-86
2023/06/04 05:13:23;;;;;;;7.68;4.78;;;;;;;23.59;47.99;99072.06;5034001;28;20447;-85
2023/06/04 05:15:52;;;;;;;12.95;5.05;;;;;;;23.59;47.86;99072.06;5001773;28;20444;-85
2023/06/04 05:18:20;;;;;;;6.80;4.60;;;;;;;23.66;47.72;99072.94;5017789;28;20030;-86
2023/06/04 05:20:46;;;;;;;9.65;4.63;;;;;;;23.74;47.68;99069.31;5001397;28;20087;-85
2023/06/04 05:23:12;;;;;;;8.73;3.95;;;;;;;23.82;47.20;99068.34;5001118;28;20041;-84
2023/06/04 05:25:38;;;;;;;9.50;4.30;;;;;;;23.90;47.12;99076.22;5017496;28;20553;-88
2023/06/04 05:28:06;;;;;;;9.48;3.90;;;;;;;23.99;47.24;99085.72;5017178;28;20072;-87
2023/06/04 05:30:33;;;;;;;8.20;4.35;;;;;;;24.03;47.18;99083.47;5046529;28;20050;-86
2023/06/04 05:32:59;;;;;;;7.38;4.18;;;;;;;24.05;47.10;99078.75;5052311;28;20496;-88
2023/06/04 05:35:24;;;;;;;7.15;4.85;;;;;;;24.09;46.68;99092.53;5052405;28;20080;-87
2023/06/04 05:37:53;;;;;;;9.55;5.05;;;;;;;24.13;46.91;99094.63;5018823;28;20112;-87
2023/06/04 05:40:20;;;;;;;11.98;5.90;;;;;;;24.15;46.73;99099.75;5052756;28;20025;-86
2023/06/04 05:42:46;;;;;;;10.63;5.90;;;;;;;24.10;46.71;99097.69;5054450;28;20032;-84
2023/06/04 05:45:12;;;;;;;18.42;8.68;;;;;;;24.09;46.77;99101.34;5019750;28;20090;-85
2023/06/04 05:47:38;;;;;;;24.13;13.95;;;;;;;24.01;46.97;99099.66;5036733;28;20036;-86
2023/06/04 05:50:04;;;;;;;16.63;9.90;;;;;;;24.03;47.08;99105.63;5020084;28;20435;-86
2023/06/04 05:52:30;;;;;;;15.68;11.10;;;;;;;24.01;47.42;99110.31;5020484;28;20033;-88
2023/06/04 05:54:55;;;;;;;16.00;10.40;;;;;;;23.95;47.65;99112.97;5022041;28;20063;-86
2023/06/04 05:57:21;;;;;;;17.73;9.57;;;;;;;23.92;47.52;99124.81;5020064;28;20484;-86
2023/06/04 05:59:46;;;;;;;13.85;7.68;;;;;;;23.89;47.18;99121.72;5020270;28;20102;-85
2023/06/04 06:02:12;;;;;;;9.35;6.72;;;;;;;23.84;47.03;99125.78;5036439;28;20065;-87
2023/06/04 06:04:38;;;;;;;12.00;7.00;;;;;;;23.76;47.34;99125.09;5037527;28;20097;-84
2023/06/04 06:07:03;;;;;;;14.55;7.07;;;;;;;23.71;47.51;99132.84;5021265;28;20400;-79
2023/06/04 06:09:29;;;;;;;13.02;7.20;;;;;;;23.66;48.00;99144.91;5036417;28;20127;-83
2023/06/04 06:11:54;;;;;;;9.65;6.63;;;;;;;23.56;48.25;99136.41;5052903;28;20197;-84
2023/06/04 06:14:20;;;;;;;9.75;6.43;;;;;;;23.53;48.31;99139.47;5053751;28;20101;-85
2023/06/04 06:16:46;;;;;;;11.02;6.43;;;;;;;23.47;48.57;99142.88;5052904;28;20051;-85
2023/06/04 06:19:13;;;;;;;12.90;6.57;;;;;;;23.44;48.67;99146.75;5019845;28;20045;-84
2023/06/04 06:21:38;;;;;;;9.38;7.13;;;;;;;23.40;48.80;99140.13;5019935;28;20033;-86
2023/06/04 06:24:05;;;;;;;9.40;6.72;;;;;;;23.40;48.69;99147.31;5052975;28;20029;-86
2023/06/04 06:26:31;;;;;;;11.70;8.35;;;;;;;23.43;48.77;99152.25;5052507;28;20128;-87
2023/06/04 06:28:57;;;;;;;13.10;8.52;;;;;;;23.42;49.19;99153.28;5056130;28;20575;-87
2023/06/04 06:31:22;;;;;;;8.65;6.70;;;;;;;23.44;50.22;99159.25;5026469;28;20041;-81
2023/06/04 06:33:48;;;;;;;16.65;6.38;;;;;;;23.58;51.19;99154.88;5052572;28;20098;-83
2023/06/04 06:36:13;;;;;;;13.63;6.43;;;;;;;23.71;51.25;99160.31;5062510;28;20067;-83
2023/06/04 06:38:39;;;;;;;11.80;7.78;;;;;;;23.71;50.84;99162.16;5053283;28;20033;-85
2023/06/04 06:41:05;;;;;;;20.73;12.85;;;;;;;23.69;50.43;99180.16;5035710;28;20044;-83
2023/06/04 06:43:31;;;;;;;18.20;9.30;;;;;;;23.66;50.80;99184.88;5018912;28;20052;-80
2023/06/04 06:45:57;;;;;;;9.60;4.50;;;;;;;23.35;48.61;99173.72;5018874;28;20432;-82
2023/06/04 06:48:22;;;;;;;10.68;5.50;;;;;;;23.06;50.74;99189.53;5018818;28;20045;-80
2023/06/04 06:50:48;;;;;;;11.98;4.82;;;;;;;23.11;51.03;99194.34;5052083;28;20068;-81
2023/06/04 06:53:13;;;;;;;10.15;5.03;;;;;;;23.17;50.87;99195.44;5035016;28;20431;-79
2023/06/04 06:55:39;;;;;;;10.95;4.40;;;;;;;23.10;50.89;99195.34;5051405;28;20029;-82
2023/06/04 06:58:05;;;;;;;13.75;4.13;;;;;;;23.08;51.37;99192.06;5018568;28;20037;-84
2023/06/04 07:00:30;;;;;;;7.90;3.60;;;;;;;23.17;51.58;99206.91;5021243;28;20095;-82
2023/06/04 07:02:57;;;;;;;12.32;3.97;;;;;;;23.21;51.78;99194.84;5034160;28;20101;-85
2023/06/04 07:05:26;;;;;;;9.25;3.22;;;;;;;23.33;51.94;99202.38;5050356;28;20041;-83
2023/06/04 07:07:52;;;;;;;10.30;3.80;;;;;;;23.39;51.82;99212.25;5034705;28;20021;-85
2023/06/04 07:10:21;;;;;;;6.75;3.50;;;;;;;23.43;52.10;99210.88;5035429;28;20045;-87
2023/06/04 07:12:47;;;;;;;11.00;3.80;;;;;;;23.43;53.45;99217.00;5061254;28;20029;-83
2023/06/04 07:15:12;;;;;;;9.18;3.35;;;;;;;23.38;53.78;99216.75;5018057;28;20040;-81
2023/06/04 07:17:38;;;;;;;6.30;3.60;;;;;;;23.32;54.29;99222.03;5017418;28;20029;-81
2023/06/04 07:20:06;;;;;;;5.15;3.47;;;;;;;23.25;55.00;99220.09;5017151;28;20044;-86
2023/06/04 07:22:32;;;;;;;10.77;3.88;;;;;;;23.26;54.63;99221.78;5018417;28;20047;-83
2023/06/04 07:25:00;;;;;;;8.55;3.88;;;;;;;23.25;54.91;99229.94;5045420;28;20095;-91
2023/06/04 07:27:26;;;;;;;7.00;4.13;;;;;;;23.18;57.02;99231.69;5059477;28;20064;-83
2023/06/04 07:29:51;;;;;;;9.65;3.85;;;;;;;23.06;56.88;99239.31;5050486;28;20457;-84
2023/06/04 07:32:17;;;;;;;5.15;3.63;;;;;;;22.93;56.83;99230.16;5016738;28;20052;-84
2023/06/04 07:34:42;;;;;;;11.05;4.10;;;;;;;22.89;57.12;99241.34;5018574;28;20051;-88
2023/06/04 07:37:09;;;;;;;10.30;3.95;;;;;;;22.85;57.28;99245.38;5020865;28;20099;-81
2023/06/04 07:39:34;;;;;;;7.03;4.20;;;;;;;22.80;59.00;99243.25;5033872;28;20037;-81
2023/06/04 07:42:00;;;;;;;5.63;4.05;;;;;;;22.73;59.42;99247.69;5035925;28;20056;-84
2023/06/04 07:44:25;;;;;;;8.73;4.20;;;;;;;22.67;59.76;99257.22;5050072;28;20029;-84
2023/06/04 07:46:51;;;;;;;6.03;4.03;;;;;;;22.61;59.69;99259.78;5049071;28;20052;-79
2023/06/04 07:49:16;;;;;;;8.43;4.32;;;;;;;22.55;58.98;99262.16;5036485;28;20041;-85
2023/06/04 07:51:42;;;;;;;5.20;3.80;;;;;;;22.55;58.99;99261.31;5038928;28;20033;-90
2023/06/04 07:54:07;;;;;;;12.55;4.00;;;;;;;22.73;58.08;99260.97;5001118;28;20515;-82
2023/06/04 07:56:33;;;;;;;10.48;3.70;;;;;;;22.91;57.24;99260.59;5032472;28;20041;-79
2023/06/04 07:58:58;;;;;;;4.30;3.33;;;;;;;23.10;56.00;99268.09;5013571;28;20083;-83
2023/06/04 08:01:24;;;;;;;5.65;3.70;;;;;;;23.25;56.21;99269.91;5029782;28;20489;-83
2023/06/04 08:03:50;;;;;;;7.32;4.07;;;;;;;23.37;56.14;99265.75;5024837;28;20540;-80
2023/06/04 08:06:15;;;;;;;15.20;3.95;;;;;;;23.53;55.90;99271.84;5051250;28;20086;-82
2023/06/04 08:08:48;;;;;;;23.02;4.85;;;;;;;23.65;56.49;99279.16;5017579;28;20107;-87
2023/06/04 08:11:15;;;;;;;27.92;4.40;;;;;;;23.73;55.07;99275.53;5034407;28;20060;-80
2023/06/04 08:13:46;;;;;;;30.13;3.97;;;;;;;23.78;54.96;99275.81;5052326;28;20032;-88
2023/06/04 08:16:12;;;;;;;16.40;4.38;;;;;;;23.77;55.03;99278.69;5035298;28;20037;-82
2023/06/04 08:18:40;;;;;;;13.88;4.40;;;;;;;23.77;55.66;99292.00;5050029;28;20103;-82
2023/06/04 08:21:10;;;;;;;18.88;4.72;;;;;;;23.70;55.86;99281.25;5016864;28;20028;-83
2023/06/04 08:23:36;;;;;;;23.10;5.13;;;;;;;23.75;56.33;99291.34;5050516;28;20036;-81
2023/06/04 08:26:03;;;;;;;10.70;4.90;;;;;;;23.72;56.47;99286.38;5050160;28;20404;-82
2023/06/04 08:28:30;;;;;;;17.08;5.10;;;;;;;23.68;56.82;99280.63;5055326;28;20933;-87
2023/06/04 08:30:55;;;;;;;11.57;5.18;;;;;;;23.70;56.91;99283.09;5041831;28;20041;-88
2023/06/04 08:33:22;;;;;;;11.13;4.55;;;;;;;23.72;56.53;99286.38;5052480;28;20472;-86
2023/06/04 08:35:47;;;;;;;14.13;5.97;;;;;;;23.76;56.13;99285.81;5036447;28;20057;-87
2023/06/04 08:38:13;;;;;;;16.95;5.57;;;;;;;23.69;57.40;99284.09;5051414;28;20079;-85
2023/06/04 08:40:40;;;;;;;12.93;5.68;;;;;;;23.55;58.08;99283.16;5034032;28;20029;-88
2023/06/04 08:43:06;;;;;;;10.38;5.65;;;;;;;23.52;58.49;99295.00;5050885;28;20056;-89
2023/06/04 08:45:38;;;;;;;9.95;5.82;;;;;;;23.44;59.02;99289.78;5033842;28;20040;-86
2023/06/04 08:48:04;;;;;;;12.35;5.97;;;;;;;23.43;59.40;99285.47;5016462;28;20041;-87
2023/06/04 08:50:31;;;;;;;8.27;5.35;;;;;;;23.41;59.53;99293.66;5032628;28;20033;-86
2023/06/04 08:52:57;;;;;;;13.18;5.85;;;;;;;23.44;59.80;99287.13;5032657;28;20021;-87
2023/06/04 08:55:23;;;;;;;11.18;5.32;;;;;;;23.48;59.90;99285.72;5050579;28;20085;-88
2023/06/04 08:57:51;;;;;;;9.43;5.22;;;;;;;23.53;59.86;99291.34;5018795;28;20029;-87
2023/06/04 09:00:18;;;;;;;9.95;5.38;;;;;;;23.62;58.93;99289.38;5033975;28;20090;-87
2023/06/04 09:02:46;;;;;;;10.27;5.40;;;;;;;23.79;58.69;99287.31;5034382;28;20106;-88
2023/06/04 09:05:20;;;;;;;8.65;4.88;;;;;;;24.01;58.90;99296.16;5017671;28;20083;-88
2023/06/04 09:07:45;;;;;;;11.32;5.03;;;;;;;24.28;58.79;99293.75;5018743;28;20041;-88
2023/06/04 09:10:12;;;;;;;8.93;4.40;;;;;;;24.56;57.03;99291.09;5035304;28;20029;-89
2023/06/04 09:12:40;;;;;;;8.30;4.60;;;;;;;24.83;57.16;99293.97;5038204;28;20033;-84
2023/06/04 09:15:05;;;;;;;8.32;4.63;;;;;;;25.03;57.10;99294.91;5037375;28;20025;-84
2023/06/04 09:17:31;;;;;;;9.18;4.53;;;;;;;25.20;56.73;99298.03;5055133;28;20036;-83
2023/06/04 09:19:57;;;;;;;7.32;4.53;;;;;;;25.36;56.91;99290.75;5020860;28;20530;-85
2023/06/04 09:22:34;;;;;;;7.47;4.22;;;;;;;25.54;55.52;99290.19;5037003;28;20041;-87
2023/06/04 09:25:00;;;;;;;8.55;4.35;;;;;;;25.68;54.20;99289.22;5021252;28;20021;-87
2023/06/04 09:27:27;;;;;;;9.15;4.22;;;;;;;25.79;53.14;99280.59;5036753;28;20049;-86
2023/06/04 09:29:54;;;;;;;9.73;4.38;;;;;;;25.93;53.56;99296.66;5037357;28;20085;-86
2023/06/04 09:32:26;;;;;;;6.00;4.25;;;;;;;26.03;54.24;99285.59;5053843;28;20037;-87
2023/06/04 09:34:53;;;;;;;7.00;4.00;;;;;;;26.08;51.33;99283.16;5022977;28;20037;-86
2023/06/04 09:37:18;;;;;;;11.88;3.72;;;;;;;26.13;49.44;99292.19;5036884;28;20112;-85
2023/06/04 09:39:54;;;;;;;8.00;3.63;;;;;;;26.15;48.90;99281.28;5037301;28;20024;-85
2023/06/04 09:42:20;;;;;;;8.15;3.95;;;;;;;26.27;51.33;99292.22;5036834;28;20077;-83
2023/06/04 09:44:46;;;;;;;6.70;4.03;;;;;;;26.26;52.00;99282.53;5053159;28;20025;-85
2023/06/04 09:47:11;;;;;;;6.97;3.72;;;;;;;26.33;49.41;99283.38;5036256;28;20036;-84
2023/06/04 09:49:43;;;;;;;6.95;3.85;;;;;;;26.43;49.97;99286.44;5036447;28;20029;-85
2023/06/04 09:52:09;;;;;;;7.85;3.90;;;;;;;26.53;52.07;99280.66;5020255;28;20041;-85
2023/06/04 09:54:36;;;;;;;10.50;3.90;;;;;;;26.54;51.42;99276.94;5053543;28;20369;-88
2023/06/04 09:57:02;;;;;;;8.00;4.20;;;;;;;26.64;51.97;99280.00;5036768;28;20476;-85
2023/06/04 09:59:27;;;;;;;7.82;3.92;;;;;;;26.76;50.72;99282.06;5036714;28;20051;-84
2023/06/04 10:01:53;;;;;;;6.32;4.00;;;;;;;26.85;52.52;99280.81;5052733;28;20082;-85
2023/06/04 10:04:19;;;;;;;8.23;3.92;;;;;;;26.87;51.21;99258.16;5036344;28;20036;-86
2023/06/04 10:06:44;;;;;;;5.53;3.92;;;;;;;27.08;50.60;99275.81;5020075;28;20053;-80
2023/06/04 10:09:10;;;;;;;8.77;3.90;;;;;;;27.20;50.39;99275.16;5035904;28;20570;-82
2023/06/04 10:11:41;;;;;;;7.60;6.35;;;;;;;27.35;49.82;99281.09;5036504;28;20147;-82
2023/06/04 10:14:37;;;;;;;8.85;5.30;;;;;;;27.60;49.72;99278.50;5036310;28;20025;-85
2023/06/04 10:17:03;;;;;;;7.90;4.75;;;;;;;27.73;47.64;99277.59;4995799;28;20049;-85
2023/06/04 10:19:28;;;;;;;9.80;5.00;;;;;;;27.87;49.90;99274.84;4979190;28;20045;-85
2023/06/04 10:21:54;;;;;;;8.85;5.18;;;;;;;27.97;49.18;99268.00;4979303;28;20049;-85
2023/06/04 10:24:20;;;;;;;7.28;4.38;;;;;;;28.17;49.24;99277.75;4995824;28;20037;-85
2023/06/04 10:26:46;;;;;;;6.72;4.35;;;;;;;28.28;49.68;99278.91;4996042;28;20072;-85
2023/06/04 10:29:11;;;;;;;6.93;4.32;;;;;;;28.42;47.57;99282.28;5012012;28;20030;-87
2023/06/04 10:31:37;;;;;;;10.68;4.70;;;;;;;28.43;48.18;99271.34;4995879;28;20045;-86
2023/06/04 10:34:03;;;;;;;10.45;4.03;;;;;;;28.50;46.46;99272.09;4979395;28;20044;-86
2023/06/04 10:36:28;;;;;;;8.27;4.20;;;;;;;28.64;45.30;99270.13;4995519;28;20069;-84
2023/06/04 10:38:55;;;;;;;6.65;3.90;;;;;;;28.71;45.53;99275.41;4995099;28;20137;-83
2023/06/04 10:41:22;;;;;;;6.40;4.22;;;;;;;28.77;47.69;99271.03;4978748;28;20038;-87
2023/06/04 10:43:51;;;;;;;6.47;4.07;;;;;;;28.66;47.59;99270.72;4995683;28;20116;-84
2023/06/04 10:46:18;;;;;;;6.75;4.03;;;;;;;28.60;46.74;99263.53;4995567;28;20041;-85
2023/06/04 10:48:50;;;;;;;5.43;4.30;;;;;;;28.53;47.70;99257.41;4994888;28;20161;-84
2023/06/04 10:51:45;;;;;;;5.95;3.65;;;;;;;28.47;47.58;99260.97;5011686;28;20397;-88
2023/06/04 10:54:10;;;;;;;9.30;4.63;;;;;;;28.44;49.50;99251.47;5002171;28;20061;-87
2023/06/04 10:56:36;;;;;;;6.72;3.85;;;;;;;28.39;44.94;99259.38;4996163;28;20080;-91
2023/06/04 10:59:13;;;;;;;6.72;4.22;;;;;;;28.42;47.42;99248.22;4978814;28;20046;-87
2023/06/04 11:01:38;;;;;;;7.07;4.30;;;;;;;28.35;45.75;99244.75;4996825;28;20409;-91
2023/06/04 11:04:05;;;;;;;5.15;3.88;;;;;;;28.33;47.73;99234.22;4995717;28;20273;-87
2023/06/04 11:06:32;;;;;;;5.70;4.35;;;;;;;28.38;47.02;99241.63;4995539;28;20034;-87
2023/06/04 11:09:05;;;;;;;6.47;3.72;;;;;;;28.40;44.78;99250.28;5011855;28;20459;-88
2023/06/04 11:11:34;;;;;;;7.80;4.50;;;;;;;28.43;46.77;99246.34;4997137;28;20501;-85
2023/06/04 11:14:09;;;;;;;10.10;4.80;;;;;;;28.42;48.26;99237.47;4995655;28;20037;-90
2023/06/04 11:16:34;;;;;;;7.40;5.05;;;;;;;28.48;48.10;99247.31;4979249;28;20036;-89
2023/06/04 11:19:01;;;;;;;6.82;4.70;;;;;;;28.41;44.25;99235.81;4995320;28;20041;-87
2023/06/04 11:21:27;;;;;;;9.17;4.53;;;;;;;28.43;45.60;99239.13;4979574;28;20058;-87
2023/06/04 11:23:57;;;;;;;9.32;4.18;;;;;;;28.40;44.45;99233.34;4993468;28;20517;-82
2023/06/04 11:26:29;;;;;;;8.57;3.65;;;;;;;28.37;39.41;99237.31;4990062;28;20042;-78